Accueil
METAR-TAF:

METAR-TAF

Aéroports :

Aéroport d'Amausi

Lucknow, Inde

latitude: 26-45N, longitude: 080-53E, altitude: 122 m

Observation

Le bulletin a été fait il y a 34 minutes, à 04:30 UTC
Vent 4 kt de nord
Température 21°C
Humidité 69%
Pression 1021 hPa
Visibilité: 1200 m
brume sèche

METAR: VILK 080430Z 35004KT 1200 R27/2000 RMID/1500 R09/1500 HZ NSC 21/15 Q1021 NOSIG

Heure: 10:34 (05:04 UTC)

Prévision

Le bulletin a été fait il y a 3 heures et 4 minutes, à 02:00 UTC
Prévision valable du 08 à 03 UTC au 08 à 12 UTC
Vent kt de nord
Visibilité: 0800 m
brouillard
Evoluant progressivement
du 08 à 04 UTC au 08 à 06 UTC
Visibilité: 1500 m
brume
Evoluant progressivement
du 08 à 07 UTC au 08 à 09 UTC
Vent 4 kt de est
Visibilité: 3000 m
brume sèche

TAF: VILK 080200Z 0803/0812 000000KT 0800 FG NSC BECMG 0804/0806 1500 BR BECMG 0807/0809 09004KT 3000 HZ NSC

Observations et prévisions météorologiques de plus de 4000 aéroports (messages METAR et TAF).

Les stations disponibles sont représentées par des disques jaunes et rouges sur la carte.

Passer la souris dessus pour voir le nom de la station.

Cliquer dessus pour voir les observations et prévisions météorologiques.

Pour changer de carte: cliquez sur les boutons verts avec une croix noire pour zoomer, sur le bouton vert avec un tiret pour effectuer un zoom arrière, ou sur les flèches vertes pour les cartes adjacentes.


METAR-TAF: